createdAt,value
2022-10-18T00:00:52.443Z,37.03
2022-10-18T00:03:19.515Z,37.33
2022-10-18T00:05:48.110Z,35.13
2022-10-18T00:08:16.028Z,36.47
2022-10-18T00:10:43.028Z,35.23
2022-10-18T00:13:10.003Z,35.77
2022-10-18T00:15:37.097Z,36.97
2022-10-18T00:18:04.584Z,36.20
2022-10-18T00:20:31.793Z,38.73
2022-10-18T00:22:58.779Z,36.77
2022-10-18T00:25:25.750Z,37.40
2022-10-18T00:27:52.702Z,35.50
2022-10-18T00:30:19.676Z,36.00
2022-10-18T00:32:46.687Z,35.27
2022-10-18T00:35:13.702Z,37.53
2022-10-18T00:37:40.655Z,33.87
2022-10-18T00:40:08.207Z,34.80
2022-10-18T00:42:38.618Z,34.30
2022-10-18T00:45:19.782Z,35.97
2022-10-18T00:47:54.324Z,34.53
2022-10-18T00:50:23.090Z,34.60
2022-10-18T00:52:54.091Z,33.13
2022-10-18T00:55:21.387Z,32.40
2022-10-18T00:57:49.938Z,30.33
2022-10-18T01:00:17.457Z,32.70
2022-10-18T01:02:45.982Z,32.03
2022-10-18T01:05:26.767Z,32.20
2022-10-18T01:08:08.611Z,30.30
2022-10-18T01:10:54.007Z,31.70
2022-10-18T01:13:38.821Z,30.47
2022-10-18T01:16:35.555Z,31.80
2022-10-18T01:19:40.127Z,32.20
2022-10-18T01:22:48.722Z,31.83
2022-10-18T01:25:49.611Z,32.03
2022-10-18T01:28:43.031Z,31.40
2022-10-18T01:31:17.200Z,31.87
2022-10-18T01:33:52.006Z,29.67
2022-10-18T01:36:24.176Z,30.17
2022-10-18T01:38:55.289Z,30.97
2022-10-18T01:41:25.363Z,31.20
2022-10-18T01:43:59.308Z,31.33
2022-10-18T01:46:28.052Z,29.23
2022-10-18T01:48:56.442Z,31.63
2022-10-18T01:51:28.669Z,31.00
2022-10-18T01:53:55.950Z,30.37
2022-10-18T01:56:30.562Z,28.20
2022-10-18T01:59:03.014Z,27.40
2022-10-18T02:01:41.322Z,28.43
2022-10-18T02:04:24.015Z,26.27
2022-10-18T02:06:57.697Z,27.80
2022-10-18T02:09:40.408Z,28.67
2022-10-18T02:12:12.250Z,30.20
2022-10-18T02:14:41.630Z,26.53
2022-10-18T02:17:12.437Z,27.67
2022-10-18T02:19:53.753Z,29.03
2022-10-18T02:22:23.914Z,28.90
2022-10-18T02:24:55.176Z,32.67
2022-10-18T02:27:22.952Z,32.57
2022-10-18T02:29:50.311Z,32.83
2022-10-18T02:32:34.644Z,32.43
2022-10-18T02:35:04.502Z,33.27
2022-10-18T02:37:35.601Z,32.13
2022-10-18T02:40:04.848Z,32.70
2022-10-18T02:42:41.489Z,31.97
2022-10-18T02:45:08.651Z,30.67
2022-10-18T02:47:35.603Z,33.80
2022-10-18T02:50:02.699Z,31.03
2022-10-18T02:52:29.647Z,34.10
2022-10-18T02:54:56.625Z,31.20
2022-10-18T02:57:23.643Z,33.07
2022-10-18T02:59:50.625Z,31.77
2022-10-18T03:02:17.588Z,31.87
2022-10-18T03:04:44.557Z,32.10
2022-10-18T03:07:11.522Z,33.27
2022-10-18T03:09:38.557Z,32.53
2022-10-18T03:12:06.169Z,33.80
2022-10-18T03:14:33.209Z,35.83
2022-10-18T03:17:00.192Z,37.90
2022-10-18T03:19:27.172Z,34.77
2022-10-18T03:21:54.224Z,35.80
2022-10-18T03:24:21.266Z,36.30
2022-10-18T03:26:48.270Z,38.53
2022-10-18T03:29:15.241Z,38.10
2022-10-18T03:31:42.514Z,37.70
2022-10-18T03:34:09.466Z,40.70
2022-10-18T03:36:36.471Z,41.83
2022-10-18T03:39:03.467Z,38.67
2022-10-18T03:41:30.485Z,40.00
2022-10-18T03:43:57.495Z,38.87
2022-10-18T03:46:24.497Z,38.60
2022-10-18T03:48:51.493Z,38.37
2022-10-18T03:51:18.444Z,38.03
2022-10-18T03:53:45.453Z,40.43
2022-10-18T03:56:12.472Z,42.27
2022-10-18T03:58:39.431Z,42.33
2022-10-18T04:01:07.088Z,42.23
2022-10-18T04:03:34.087Z,40.37
2022-10-18T04:06:03.469Z,38.83
2022-10-18T04:08:30.622Z,39.47
2022-10-18T04:10:57.608Z,39.67
2022-10-18T04:13:24.670Z,38.53
2022-10-18T04:15:51.676Z,38.27
2022-10-18T04:18:18.698Z,39.27
2022-10-18T04:20:45.645Z,41.57
2022-10-18T04:23:12.627Z,39.63
2022-10-18T04:25:39.668Z,40.37
2022-10-18T04:28:06.743Z,38.87
2022-10-18T04:30:33.749Z,38.77
2022-10-18T04:33:00.745Z,39.23
2022-10-18T04:35:28.424Z,40.63
2022-10-18T04:37:55.491Z,36.47
2022-10-18T04:40:22.468Z,37.23
2022-10-18T04:42:49.463Z,39.63
2022-10-18T04:45:16.461Z,38.90
2022-10-18T04:47:43.424Z,37.40
2022-10-18T04:50:10.441Z,39.13
2022-10-18T04:52:37.448Z,39.07
2022-10-18T04:55:04.678Z,39.83
2022-10-18T04:57:32.078Z,39.07
2022-10-18T04:59:59.238Z,39.17
2022-10-18T05:02:26.231Z,37.87
2022-10-18T05:04:53.231Z,41.63
2022-10-18T05:07:20.369Z,40.43
2022-10-18T05:09:47.360Z,37.47
2022-10-18T05:12:14.331Z,40.60
2022-10-18T05:14:41.341Z,39.37
2022-10-18T05:17:08.391Z,39.20
2022-10-18T05:19:35.529Z,39.87
2022-10-18T05:22:02.505Z,38.93
2022-10-18T05:24:29.498Z,41.23
2022-10-18T05:26:56.490Z,38.67
2022-10-18T05:29:23.988Z,39.17
2022-10-18T05:31:51.211Z,38.43
2022-10-18T05:34:18.347Z,38.63
2022-10-18T05:36:45.403Z,38.03
2022-10-18T05:39:12.433Z,36.10
2022-10-18T05:41:39.423Z,35.93
2022-10-18T05:44:06.775Z,35.23
2022-10-18T05:46:34.203Z,34.40
2022-10-18T05:49:01.182Z,32.23
2022-10-18T05:51:28.215Z,32.77
2022-10-18T05:53:55.348Z,29.93
2022-10-18T05:56:22.440Z,31.40
2022-10-18T05:58:52.556Z,30.27
2022-10-18T06:01:20.154Z,30.10
2022-10-18T06:03:47.562Z,28.13
2022-10-18T06:06:15.430Z,30.47
2022-10-18T06:08:43.781Z,29.03
2022-10-18T06:11:14.687Z,28.37
2022-10-18T06:13:43.458Z,28.00
2022-10-18T06:16:11.452Z,27.93
2022-10-18T06:18:38.740Z,27.20
2022-10-18T06:21:06.410Z,28.20
2022-10-18T06:23:34.005Z,28.33
2022-10-18T06:26:02.668Z,27.57
2022-10-18T06:28:30.490Z,27.73
2022-10-18T06:30:58.452Z,27.90
2022-10-18T06:33:25.741Z,26.17
2022-10-18T06:36:01.068Z,27.43
2022-10-18T06:38:29.293Z,27.07
2022-10-18T06:40:57.355Z,27.70
2022-10-18T06:43:25.036Z,26.13
2022-10-18T06:45:52.980Z,27.93
2022-10-18T06:48:21.306Z,29.37
2022-10-18T06:50:57.087Z,28.73
2022-10-18T06:53:32.385Z,28.63
2022-10-18T06:56:01.766Z,29.73
2022-10-18T06:58:29.598Z,27.93
2022-10-18T07:00:56.896Z,29.57
2022-10-18T07:03:23.980Z,30.53
2022-10-18T07:05:51.195Z,30.80
2022-10-18T07:08:18.482Z,33.23
2022-10-18T07:10:53.204Z,31.80
2022-10-18T07:13:31.930Z,31.53
2022-10-18T07:16:06.422Z,32.17
2022-10-18T07:18:34.982Z,34.37
2022-10-18T07:21:06.890Z,35.63
2022-10-18T07:23:35.019Z,35.80
2022-10-18T07:26:03.559Z,36.73
2022-10-18T07:28:31.034Z,36.83
2022-10-18T07:31:06.055Z,37.03
2022-10-18T07:33:34.318Z,37.97
2022-10-18T07:36:03.373Z,37.27
2022-10-18T07:38:30.725Z,36.03
2022-10-18T07:41:02.241Z,36.60
2022-10-18T07:43:29.897Z,35.23
2022-10-18T07:45:59.129Z,36.20
2022-10-18T07:48:26.574Z,34.93
2022-10-18T07:50:54.066Z,36.17
2022-10-18T07:53:21.163Z,36.07
2022-10-18T07:55:48.147Z,35.80
2022-10-18T07:58:15.300Z,37.73
2022-10-18T08:00:42.330Z,35.53
2022-10-18T08:03:09.300Z,36.97
2022-10-18T08:05:36.246Z,36.43
2022-10-18T08:08:05.756Z,38.77
2022-10-18T08:10:35.781Z,42.07
2022-10-18T08:13:02.794Z,40.00
2022-10-18T08:15:29.757Z,40.33
2022-10-18T08:17:56.785Z,40.20
2022-10-18T08:20:30.945Z,40.20
2022-10-18T08:23:00.338Z,42.53
2022-10-18T08:25:28.447Z,41.53
2022-10-18T08:27:55.446Z,41.13
2022-10-18T08:30:23.580Z,42.47
2022-10-18T08:32:50.614Z,42.17
2022-10-18T08:35:17.589Z,42.07
2022-10-18T08:37:45.436Z,44.53
2022-10-18T08:40:16.317Z,42.30
2022-10-18T08:43:02.090Z,43.90
2022-10-18T08:45:41.900Z,42.70
2022-10-18T08:48:22.062Z,42.60
2022-10-18T08:50:51.000Z,45.03
2022-10-18T08:53:28.880Z,45.93
2022-10-18T08:56:03.807Z,46.20
2022-10-18T08:58:33.402Z,46.37
2022-10-18T09:01:25.050Z,47.20
2022-10-18T09:04:09.908Z,48.00
2022-10-18T09:07:06.969Z,46.67
2022-10-18T09:09:53.001Z,47.97
2022-10-18T09:12:32.271Z,50.03
2022-10-18T09:15:11.210Z,49.30
2022-10-18T09:17:53.185Z,50.40
2022-10-18T09:20:48.228Z,49.47
2022-10-18T09:23:23.006Z,48.00
2022-10-18T09:26:07.828Z,46.67
2022-10-18T09:28:34.782Z,51.67
2022-10-18T09:31:17.152Z,51.17
2022-10-18T09:33:50.809Z,52.47
2022-10-18T09:36:35.492Z,51.87
2022-10-18T09:39:18.766Z,50.13
2022-10-18T09:41:48.466Z,53.73
2022-10-18T09:44:43.918Z,53.77
2022-10-18T09:47:17.720Z,55.57
2022-10-18T09:49:48.601Z,56.73
2022-10-18T09:52:39.486Z,57.90
2022-10-18T09:55:17.686Z,57.83
2022-10-18T09:57:56.386Z,57.83
2022-10-18T10:00:29.182Z,60.60
2022-10-18T10:02:56.302Z,61.17
2022-10-18T10:05:23.294Z,60.97
2022-10-18T10:07:56.855Z,60.60
2022-10-18T10:10:28.643Z,61.17
2022-10-18T10:13:26.202Z,60.37
2022-10-18T10:16:01.660Z,63.00
2022-10-18T10:18:32.375Z,63.70
2022-10-18T10:21:02.556Z,59.87
2022-10-18T10:23:38.910Z,60.53
2022-10-18T10:26:22.030Z,60.57
2022-10-18T10:28:49.376Z,58.33
2022-10-18T10:31:26.170Z,58.93
2022-10-18T10:34:06.875Z,58.63
2022-10-18T10:36:35.145Z,59.33
2022-10-18T10:39:11.893Z,59.13
2022-10-18T10:41:40.941Z,58.77
2022-10-18T10:44:17.695Z,56.20
2022-10-18T10:46:45.370Z,55.33
2022-10-18T10:49:39.815Z,54.93
2022-10-18T10:52:26.730Z,54.83
2022-10-18T10:55:05.790Z,52.90
2022-10-18T10:57:39.063Z,55.60
2022-10-18T11:00:06.424Z,53.77
2022-10-18T11:02:35.533Z,55.47
2022-10-18T11:05:29.426Z,51.47
2022-10-18T11:08:02.386Z,49.37
2022-10-18T11:10:34.560Z,51.60
2022-10-18T11:13:23.777Z,52.27
2022-10-18T11:15:57.381Z,49.40
2022-10-18T11:18:27.270Z,50.03
2022-10-18T11:21:12.988Z,49.10
2022-10-18T11:23:42.980Z,49.07
2022-10-18T11:26:12.847Z,45.93
2022-10-18T11:28:45.474Z,48.00
2022-10-18T11:31:18.874Z,47.27
2022-10-18T11:34:09.870Z,46.00
2022-10-18T11:36:56.413Z,46.03
2022-10-18T11:39:44.193Z,45.87
2022-10-18T11:42:35.653Z,46.37
2022-10-18T11:45:11.507Z,40.93
2022-10-18T11:47:55.868Z,45.53
2022-10-18T11:50:26.310Z,44.33
2022-10-18T11:53:38.118Z,43.53
2022-10-18T11:56:21.568Z,44.43
2022-10-18T11:59:19.448Z,42.67
2022-10-18T12:02:04.158Z,39.63
2022-10-18T12:04:53.050Z,38.30
2022-10-18T12:07:38.418Z,38.73
2022-10-18T12:10:09.725Z,40.60
2022-10-18T12:12:43.749Z,42.07
2022-10-18T12:15:19.780Z,39.43
2022-10-18T12:17:59.865Z,41.17
2022-10-18T12:20:38.041Z,38.23
2022-10-18T12:23:17.689Z,39.57
2022-10-18T12:25:52.751Z,34.90
2022-10-18T12:28:47.498Z,34.17
2022-10-18T12:31:23.438Z,37.33
2022-10-18T12:33:58.334Z,35.03
2022-10-18T12:36:41.093Z,32.37
2022-10-18T12:39:16.342Z,36.20
2022-10-18T12:41:47.539Z,37.47
2022-10-18T12:44:22.230Z,33.80
2022-10-18T12:46:54.583Z,35.17
2022-10-18T12:49:40.262Z,33.20
2022-10-18T12:52:28.908Z,29.67
2022-10-18T12:55:27.637Z,29.37
2022-10-18T12:57:54.559Z,31.30
2022-10-18T13:00:30.635Z,28.40
2022-10-18T13:03:09.777Z,31.10
2022-10-18T13:05:54.360Z,33.00
2022-10-18T13:08:31.718Z,30.23
2022-10-18T13:11:01.580Z,29.77
2022-10-18T13:13:39.724Z,28.63
2022-10-18T13:16:30.918Z,23.83
2022-10-18T13:19:26.736Z,29.73
2022-10-18T13:21:59.847Z,27.80
2022-10-18T13:24:42.021Z,29.00
2022-10-18T13:27:41.083Z,27.67
2022-10-18T13:30:29.230Z,28.90
2022-10-18T13:32:57.364Z,29.70
2022-10-18T13:35:44.926Z,32.60
2022-10-18T13:38:48.997Z,29.70
2022-10-18T13:41:21.507Z,22.00
2022-10-18T13:44:11.421Z,22.00
2022-10-18T13:46:38.580Z,22.70
2022-10-18T13:49:17.667Z,25.23
2022-10-18T13:52:03.343Z,26.33
2022-10-18T13:54:55.005Z,27.17
2022-10-18T13:57:47.233Z,26.83
2022-10-18T14:00:32.745Z,25.73
2022-10-18T14:03:03.013Z,27.47
2022-10-18T14:05:48.852Z,26.43
2022-10-18T14:08:36.514Z,25.80
2022-10-18T14:11:07.967Z,24.83
2022-10-18T14:14:02.556Z,27.07
2022-10-18T14:16:53.013Z,25.33
2022-10-18T14:19:30.343Z,23.47
2022-10-18T14:22:09.526Z,26.37
2022-10-18T14:24:40.627Z,26.13
2022-10-18T14:27:33.975Z,23.57
2022-10-18T14:30:13.097Z,23.67
2022-10-18T14:32:49.495Z,23.37
2022-10-18T14:35:32.092Z,24.47
2022-10-18T14:38:00.275Z,25.73
2022-10-18T14:40:27.178Z,25.30
2022-10-18T14:42:54.156Z,23.93
2022-10-18T14:45:23.259Z,21.73
2022-10-18T14:47:50.353Z,23.77
2022-10-18T14:50:30.699Z,25.00
2022-10-18T14:52:58.183Z,25.07
2022-10-18T14:55:32.575Z,22.87
2022-10-18T14:57:59.987Z,21.37
2022-10-18T15:00:37.117Z,22.77
2022-10-18T15:03:07.227Z,21.70
2022-10-18T15:05:34.278Z,20.93
2022-10-18T15:08:01.845Z,26.67
2022-10-18T15:10:35.189Z,26.37
2022-10-18T15:13:09.746Z,27.07
2022-10-18T15:15:38.443Z,26.13
2022-10-18T15:18:06.770Z,22.63
2022-10-18T15:20:39.628Z,23.00
2022-10-18T15:23:31.308Z,22.13
2022-10-18T15:26:11.552Z,21.67
2022-10-18T15:28:52.448Z,21.40
2022-10-18T15:31:33.277Z,23.87
2022-10-18T15:34:20.144Z,22.83
2022-10-18T15:36:47.995Z,23.20
2022-10-18T15:39:32.026Z,22.90
2022-10-18T15:42:00.560Z,24.50
2022-10-18T15:44:31.950Z,23.80
2022-10-18T15:47:21.226Z,20.67
2022-10-18T15:49:58.382Z,21.77
2022-10-18T15:52:38.035Z,22.87
2022-10-18T15:55:30.141Z,22.17
2022-10-18T15:58:05.194Z,21.47
2022-10-18T16:00:32.309Z,24.10
2022-10-18T16:02:59.317Z,22.87
2022-10-18T16:05:27.199Z,23.60
2022-10-18T16:07:54.623Z,24.43
2022-10-18T16:10:21.676Z,22.93
2022-10-18T16:12:48.670Z,25.80
2022-10-18T16:15:15.748Z,25.23
2022-10-18T16:17:42.799Z,23.90
2022-10-18T16:20:20.987Z,23.73
2022-10-18T16:22:48.171Z,23.37
2022-10-18T16:25:15.480Z,24.43
2022-10-18T16:27:42.775Z,25.07
2022-10-18T16:30:16.415Z,25.67
2022-10-18T16:32:43.375Z,23.40
2022-10-18T16:35:12.498Z,23.10
2022-10-18T16:37:40.201Z,25.33
2022-10-18T16:40:26.440Z,20.17
2022-10-18T16:42:53.388Z,20.10
2022-10-18T16:45:20.355Z,21.97
2022-10-18T16:47:47.418Z,22.67
2022-10-18T16:50:20.465Z,21.77
2022-10-18T16:52:47.555Z,23.03
2022-10-18T16:55:21.445Z,24.20
2022-10-18T16:57:50.416Z,24.07
2022-10-18T17:00:21.045Z,24.83
2022-10-18T17:02:49.000Z,27.23
2022-10-18T17:05:17.226Z,39.40
2022-10-18T17:07:44.797Z,40.27
2022-10-18T17:10:14.074Z,36.77
2022-10-18T17:12:41.870Z,32.77
2022-10-18T17:15:10.085Z,30.57
2022-10-18T17:17:38.132Z,34.20
2022-10-18T17:20:07.495Z,28.77
2022-10-18T17:22:34.674Z,28.80
2022-10-18T17:25:01.683Z,29.93
2022-10-18T17:27:28.740Z,27.83
2022-10-18T17:29:55.911Z,27.30
2022-10-18T17:32:22.968Z,27.93
2022-10-18T17:34:49.984Z,28.53
2022-10-18T17:37:17.036Z,25.60
2022-10-18T17:39:43.980Z,27.17
2022-10-18T17:42:10.995Z,27.10
2022-10-18T17:44:38.048Z,26.40
2022-10-18T17:47:05.043Z,31.97
2022-10-18T17:49:32.060Z,32.87
2022-10-18T17:52:01.164Z,35.97
2022-10-18T17:54:31.615Z,32.70
2022-10-18T17:56:58.586Z,31.77
2022-10-18T17:59:25.564Z,28.23
2022-10-18T18:01:52.639Z,26.07
2022-10-18T18:04:19.841Z,26.30
2022-10-18T18:06:49.040Z,25.60
2022-10-18T18:09:16.957Z,25.23
2022-10-18T18:11:47.367Z,26.57
2022-10-18T18:14:16.057Z,29.10
2022-10-18T18:16:45.926Z,27.87
2022-10-18T18:19:14.036Z,27.40
2022-10-18T18:21:41.559Z,28.23
2022-10-18T18:24:10.177Z,29.13
2022-10-18T18:26:38.230Z,30.70
2022-10-18T18:29:05.361Z,27.53
2022-10-18T18:31:37.758Z,26.30
2022-10-18T18:34:07.290Z,26.17
2022-10-18T18:36:34.377Z,27.07
2022-10-18T18:39:01.585Z,28.80
2022-10-18T18:41:29.272Z,28.00
2022-10-18T18:44:04.444Z,29.67
2022-10-18T18:46:36.703Z,30.50
2022-10-18T18:49:05.281Z,29.80
2022-10-18T18:51:33.510Z,30.70
2022-10-18T18:54:00.878Z,31.23
2022-10-18T18:56:29.242Z,30.50
2022-10-18T18:58:58.712Z,32.03
2022-10-18T19:01:29.000Z,35.57
2022-10-18T19:03:58.000Z,33.97
2022-10-18T19:06:45.953Z,34.13
2022-10-18T19:09:21.660Z,31.87
2022-10-18T19:11:53.893Z,30.70
2022-10-18T19:16:57.615Z,30.17
2022-10-18T19:19:26.805Z,29.57
2022-10-18T19:21:59.451Z,28.63
2022-10-18T19:24:28.868Z,29.93
2022-10-18T19:26:58.895Z,29.40
2022-10-18T19:29:29.823Z,28.37
2022-10-18T19:31:59.988Z,28.77
2022-10-18T19:34:29.215Z,29.00
2022-10-18T19:36:57.108Z,29.23
2022-10-18T19:39:29.822Z,28.77
2022-10-18T19:41:59.375Z,33.23
2022-10-18T19:44:30.100Z,35.50
2022-10-18T19:46:57.822Z,39.90
2022-10-18T19:49:25.123Z,35.80
2022-10-18T19:51:52.398Z,38.53
2022-10-18T19:54:19.601Z,36.07
2022-10-18T19:56:47.218Z,35.03
2022-10-18T19:59:16.673Z,31.33
2022-10-18T20:01:44.882Z,32.97
2022-10-18T20:04:13.523Z,32.67
2022-10-18T20:06:41.306Z,32.73
2022-10-18T20:09:12.351Z,30.67
2022-10-18T20:11:42.328Z,31.93
2022-10-18T20:14:10.941Z,31.07
2022-10-18T20:16:38.432Z,28.80
2022-10-18T20:19:07.441Z,29.30
2022-10-18T20:21:35.934Z,28.87
2022-10-18T20:24:04.992Z,28.40
2022-10-18T20:26:33.048Z,29.03
2022-10-18T20:29:00.228Z,27.93
2022-10-18T20:31:30.778Z,29.17
2022-10-18T20:34:04.062Z,30.77
2022-10-18T20:36:33.057Z,32.63
2022-10-18T20:39:00.980Z,30.27
2022-10-18T20:41:34.109Z,31.87
2022-10-18T20:44:10.788Z,36.70
2022-10-18T20:46:38.789Z,38.67
2022-10-18T20:49:08.220Z,37.67
2022-10-18T20:51:35.947Z,36.30
2022-10-18T20:54:07.640Z,34.90
2022-10-18T20:56:36.640Z,34.80
2022-10-18T20:59:06.572Z,35.50
2022-10-18T21:01:35.173Z,31.40
2022-10-18T21:04:05.478Z,33.73
2022-10-18T21:06:38.905Z,34.10
2022-10-18T21:09:18.786Z,34.73
2022-10-18T21:11:49.997Z,36.53
2022-10-18T21:14:20.653Z,34.70
2022-10-18T21:16:48.813Z,32.77
2022-10-18T21:19:22.030Z,34.47
2022-10-18T21:21:52.128Z,33.93
2022-10-18T21:24:20.846Z,34.80
2022-10-18T21:26:48.363Z,33.27
2022-10-18T21:29:21.667Z,36.93
2022-10-18T21:31:49.975Z,35.73
2022-10-18T21:34:18.135Z,34.47
2022-10-18T21:36:47.398Z,36.00
2022-10-18T21:39:21.238Z,36.53
2022-10-18T21:41:49.751Z,37.90
2022-10-18T21:44:17.662Z,37.07
2022-10-18T21:46:47.039Z,38.90
2022-10-18T21:49:15.912Z,40.17
2022-10-18T21:51:43.812Z,39.33
2022-10-18T21:54:13.538Z,37.03
2022-10-18T21:56:40.803Z,39.07
2022-10-18T21:59:08.707Z,38.63
2022-10-18T22:01:38.006Z,37.30
2022-10-18T22:04:08.610Z,38.57
2022-10-18T22:06:37.178Z,40.27
2022-10-18T22:09:09.000Z,37.93
2022-10-18T22:11:43.974Z,38.90
2022-10-18T22:14:12.248Z,39.63
2022-10-18T22:16:39.475Z,38.80
2022-10-18T22:19:07.406Z,37.17
2022-10-18T22:21:34.863Z,40.90
2022-10-18T22:24:05.558Z,37.57
2022-10-18T22:26:35.082Z,40.03
2022-10-18T22:29:17.210Z,37.43
2022-10-18T22:31:48.996Z,37.90
2022-10-18T22:34:27.100Z,40.80
2022-10-18T22:36:55.178Z,39.17
2022-10-18T22:39:22.526Z,38.83
2022-10-18T22:41:56.118Z,36.53
2022-10-18T22:44:24.000Z,38.87
2022-10-18T22:46:51.561Z,38.60
2022-10-18T22:49:20.015Z,39.03
2022-10-18T22:51:47.543Z,40.53
2022-10-18T22:54:15.018Z,39.17
2022-10-18T22:56:42.867Z,40.30
2022-10-18T22:59:10.486Z,39.97
2022-10-18T23:01:38.480Z,41.73
2022-10-18T23:04:05.758Z,39.87
2022-10-18T23:06:35.447Z,38.43
2022-10-18T23:09:07.146Z,38.60
2022-10-18T23:11:35.454Z,39.73
2022-10-18T23:14:04.433Z,40.17
2022-10-18T23:16:32.295Z,41.20
2022-10-18T23:19:00.114Z,41.00
2022-10-18T23:21:28.782Z,40.43
2022-10-18T23:23:57.002Z,38.77
2022-10-18T23:26:26.734Z,38.63
2022-10-18T23:28:55.138Z,38.57
2022-10-18T23:31:23.837Z,37.90
2022-10-18T23:33:53.111Z,38.63
2022-10-18T23:36:21.505Z,37.73
2022-10-18T23:38:48.820Z,37.97
2022-10-18T23:41:16.952Z,38.23
2022-10-18T23:43:44.338Z,34.77
2022-10-18T23:46:13.186Z,38.47
2022-10-18T23:48:41.355Z,36.77
2022-10-18T23:51:09.605Z,37.63
2022-10-18T23:53:37.643Z,35.67
2022-10-18T23:56:07.935Z,36.70
2022-10-18T23:58:35.973Z,37.90
